< Typhoon 198020 1980 Season Typhoon 198022 >
Typhoon 198021 (BETTY)
General InformationTrack Information on Google MapsDetailed Wind Information || Disaster Info.ResourceGoogle EarthGE AnimationAtom FeedGeoJSON
Detalied Best Track (Time Zone = UTC)
Year Month Day Hour Lat. Long. Pressure (hPa) Wind (kt) Class Image Chart
1980 10 28 00 6.8 154.7 1004 0 2 -- Chart
1980 10 28 06 7.7 153.8 1002 0 2 -- Chart
1980 10 28 12 7.8 153.3 1002 0 2 -- Chart
1980 10 28 18 7.3 153.2 1000 0 2 -- Chart
1980 10 29 00 7.8 154.2 998 35 3 -- Chart
1980 10 29 06 8.9 154.0 998 35 3 -- Chart
1980 10 29 12 9.9 153.1 996 40 3 -- Chart
1980 10 29 18 10.4 152.2 992 50 4 -- Chart
1980 10 30 00 10.8 150.6 992 50 4 -- Chart
1980 10 30 06 11.7 148.9 990 60 4 -- Chart
1980 10 30 12 12.3 147.1 980 60 4 -- Chart
1980 10 30 18 12.9 145.3 975 60 4 -- Chart
1980 10 31 00 13.3 143.5 970 70 5 -- Chart
1980 10 31 06 13.6 141.7 965 70 5 -- Chart
1980 10 31 12 13.7 139.7 960 75 5 -- Chart
1980 10 31 18 13.9 138.0 960 75 5 -- Chart
1980 11 1 00 14.0 136.2 960 80 5 -- Chart
1980 11 1 06 14.2 134.7 960 80 5 -- Chart
1980 11 1 12 14.6 133.3 965 80 5 -- Chart
1980 11 1 18 14.7 131.9 965 75 5 -- Chart
1980 11 2 00 14.7 131.0 960 80 5 -- Chart
1980 11 2 06 14.8 130.2 955 90 5 -- Chart
1980 11 2 12 14.9 129.3 960 90 5 -- Chart
1980 11 2 18 14.7 128.7 960 90 5 -- Chart
1980 11 3 00 14.3 128.1 955 90 5 -- Chart
1980 11 3 06 14.3 127.5 940 100 5 -- Chart
1980 11 3 12 14.4 126.8 930 100 5 -- Chart
1980 11 3 18 14.5 125.9 930 100 5 -- Chart
1980 11 4 00 14.7 124.8 925 100 5 -- Chart
1980 11 4 06 15.2 123.8 930 100 5 -- Chart
1980 11 4 12 15.8 122.7 930 100 5 -- Chart
1980 11 4 18 16.2 121.7 945 90 5 -- Chart
1980 11 5 00 16.6 120.7 970 65 5 -- Chart
1980 11 5 06 17.4 120.4 980 55 4 -- Chart
1980 11 5 12 18.5 120.6 990 50 4 -- Chart
1980 11 5 18 19.4 120.9 990 50 4 -- Chart
1980 11 6 00 19.9 121.1 990 50 4 -- Chart
1980 11 6 06 20.4 121.2 985 50 4 -- Chart
1980 11 6 12 21.4 122.1 990 45 3 -- Chart
1980 11 6 18 22.5 123.5 992 45 3 -- Chart
1980 11 7 00 23.5 124.8 992 40 3 -- Chart
1980 11 7 06 24.6 126.5 994 35 3 -- Chart
1980 11 7 12 25.4 128.8 996 35 3 -- Chart
1980 11 7 18 26.5 131.5 998 0 2 -- Chart
1980 11 8 00 28.0 136.0 1004 0 6 -- Chart
1980 11 8 06 28.0 140.0 1006 0 6 -- Chart
1980 11 8 12 28.0 144.0 1012 0 6 -- Chart
Japan Meteorological Agency Best Track Data | Correction Date : 1992-10-21
< Typhoon 198020 1980 Season Typhoon 198022 >

Help